sensor_id;sensor_type;location;lat;lon;timestamp;P1;durP1;ratioP1;P2;durP2;ratioP2
21825;SDS011;11075;47.944;11.776;2023-11-19T00:00:09;1.60;;;1.50;;
21825;SDS011;11075;47.944;11.776;2023-11-19T00:02:41;1.30;;;1.20;;
21825;SDS011;11075;47.944;11.776;2023-11-19T00:05:09;1.63;;;1.47;;
21825;SDS011;11075;47.944;11.776;2023-11-19T00:07:39;1.70;;;1.50;;
21825;SDS011;11075;47.944;11.776;2023-11-19T00:10:16;1.70;;;1.40;;
21825;SDS011;11075;47.944;11.776;2023-11-19T00:12:47;2.00;;;1.50;;
21825;SDS011;11075;47.944;11.776;2023-11-19T00:15:16;3.70;;;1.30;;
21825;SDS011;11075;47.944;11.776;2023-11-19T00:17:46;1.87;;;1.73;;
21825;SDS011;11075;47.944;11.776;2023-11-19T00:20:14;2.50;;;1.40;;
21825;SDS011;11075;47.944;11.776;2023-11-19T00:22:42;1.80;;;1.60;;
21825;SDS011;11075;47.944;11.776;2023-11-19T00:25:13;2.00;;;1.70;;
21825;SDS011;11075;47.944;11.776;2023-11-19T00:27:39;2.30;;;1.90;;
21825;SDS011;11075;47.944;11.776;2023-11-19T00:30:06;2.03;;;1.80;;
21825;SDS011;11075;47.944;11.776;2023-11-19T00:32:35;1.90;;;1.60;;
21825;SDS011;11075;47.944;11.776;2023-11-19T00:35:02;2.10;;;1.90;;
21825;SDS011;11075;47.944;11.776;2023-11-19T00:37:29;2.57;;;1.67;;
21825;SDS011;11075;47.944;11.776;2023-11-19T00:39:56;1.67;;;1.57;;
21825;SDS011;11075;47.944;11.776;2023-11-19T00:42:24;2.10;;;1.90;;
21825;SDS011;11075;47.944;11.776;2023-11-19T00:44:51;2.40;;;2.20;;
21825;SDS011;11075;47.944;11.776;2023-11-19T00:47:19;2.40;;;2.03;;
21825;SDS011;11075;47.944;11.776;2023-11-19T00:49:48;2.17;;;1.97;;
21825;SDS011;11075;47.944;11.776;2023-11-19T00:52:16;2.97;;;2.00;;
21825;SDS011;11075;47.944;11.776;2023-11-19T00:54:43;2.20;;;2.00;;
21825;SDS011;11075;47.944;11.776;2023-11-19T00:57:10;2.57;;;2.23;;
21825;SDS011;11075;47.944;11.776;2023-11-19T00:59:37;2.97;;;2.40;;
21825;SDS011;11075;47.944;11.776;2023-11-19T01:02:04;2.27;;;2.07;;
21825;SDS011;11075;47.944;11.776;2023-11-19T01:04:33;2.67;;;2.33;;
21825;SDS011;11075;47.944;11.776;2023-11-19T01:07:02;3.13;;;2.47;;
21825;SDS011;11075;47.944;11.776;2023-11-19T01:09:32;3.17;;;2.40;;
21825;SDS011;11075;47.944;11.776;2023-11-19T01:12:03;2.90;;;2.60;;
21825;SDS011;11075;47.944;11.776;2023-11-19T01:14:30;3.67;;;3.00;;
21825;SDS011;11075;47.944;11.776;2023-11-19T01:16:57;2.57;;;2.33;;
21825;SDS011;11075;47.944;11.776;2023-11-19T01:19:24;3.07;;;2.53;;
21825;SDS011;11075;47.944;11.776;2023-11-19T01:21:51;2.83;;;2.30;;
21825;SDS011;11075;47.944;11.776;2023-11-19T01:24:18;2.77;;;2.53;;
21825;SDS011;11075;47.944;11.776;2023-11-19T01:26:45;2.30;;;2.10;;
21825;SDS011;11075;47.944;11.776;2023-11-19T01:29:16;2.50;;;2.30;;
21825;SDS011;11075;47.944;11.776;2023-11-19T01:31:43;2.83;;;2.43;;
21825;SDS011;11075;47.944;11.776;2023-11-19T01:34:12;3.23;;;2.70;;
21825;SDS011;11075;47.944;11.776;2023-11-19T01:36:39;2.63;;;2.20;;
21825;SDS011;11075;47.944;11.776;2023-11-19T01:39:06;3.43;;;2.73;;
21825;SDS011;11075;47.944;11.776;2023-11-19T01:41:36;3.13;;;2.50;;
21825;SDS011;11075;47.944;11.776;2023-11-19T01:44:05;3.13;;;2.73;;
21825;SDS011;11075;47.944;11.776;2023-11-19T01:46:33;4.67;;;2.60;;
21825;SDS011;11075;47.944;11.776;2023-11-19T01:49:02;3.33;;;2.50;;
21825;SDS011;11075;47.944;11.776;2023-11-19T01:51:29;3.23;;;2.57;;
21825;SDS011;11075;47.944;11.776;2023-11-19T01:53:57;3.40;;;2.60;;
21825;SDS011;11075;47.944;11.776;2023-11-19T01:56:24;3.50;;;2.60;;
21825;SDS011;11075;47.944;11.776;2023-11-19T01:58:54;2.90;;;2.43;;
21825;SDS011;11075;47.944;11.776;2023-11-19T02:01:22;3.87;;;2.47;;
21825;SDS011;11075;47.944;11.776;2023-11-19T02:03:50;4.60;;;2.57;;
21825;SDS011;11075;47.944;11.776;2023-11-19T02:06:19;3.07;;;2.30;;
21825;SDS011;11075;47.944;11.776;2023-11-19T02:08:46;3.07;;;2.63;;
21825;SDS011;11075;47.944;11.776;2023-11-19T02:11:13;3.67;;;2.80;;
21825;SDS011;11075;47.944;11.776;2023-11-19T02:13:40;3.33;;;2.40;;
21825;SDS011;11075;47.944;11.776;2023-11-19T02:16:08;5.07;;;2.37;;
21825;SDS011;11075;47.944;11.776;2023-11-19T02:18:36;3.83;;;2.63;;
21825;SDS011;11075;47.944;11.776;2023-11-19T02:21:03;3.50;;;2.57;;
21825;SDS011;11075;47.944;11.776;2023-11-19T02:23:31;4.37;;;2.70;;
21825;SDS011;11075;47.944;11.776;2023-11-19T02:26:02;5.87;;;2.33;;
21825;SDS011;11075;47.944;11.776;2023-11-19T02:28:35;4.83;;;2.40;;
21825;SDS011;11075;47.944;11.776;2023-11-19T02:31:03;4.07;;;2.43;;
21825;SDS011;11075;47.944;11.776;2023-11-19T02:33:37;2.80;;;1.77;;
21825;SDS011;11075;47.944;11.776;2023-11-19T02:36:04;4.33;;;1.60;;
21825;SDS011;11075;47.944;11.776;2023-11-19T02:38:33;2.90;;;1.90;;
21825;SDS011;11075;47.944;11.776;2023-11-19T02:41:05;2.60;;;1.80;;
21825;SDS011;11075;47.944;11.776;2023-11-19T02:43:33;2.63;;;1.83;;
21825;SDS011;11075;47.944;11.776;2023-11-19T02:46:01;2.13;;;1.60;;
21825;SDS011;11075;47.944;11.776;2023-11-19T02:48:36;3.60;;;1.60;;
21825;SDS011;11075;47.944;11.776;2023-11-19T02:51:05;2.47;;;1.80;;
21825;SDS011;11075;47.944;11.776;2023-11-19T02:53:36;3.30;;;1.90;;
21825;SDS011;11075;47.944;11.776;2023-11-19T02:56:05;1.40;;;1.17;;
21825;SDS011;11075;47.944;11.776;2023-11-19T02:58:46;2.20;;;1.80;;
21825;SDS011;11075;47.944;11.776;2023-11-19T03:01:13;3.90;;;1.97;;
21825;SDS011;11075;47.944;11.776;2023-11-19T03:03:50;6.00;;;1.43;;
21825;SDS011;11075;47.944;11.776;2023-11-19T03:06:24;1.93;;;1.50;;
21825;SDS011;11075;47.944;11.776;2023-11-19T03:08:51;2.60;;;1.23;;
21825;SDS011;11075;47.944;11.776;2023-11-19T03:11:17;1.60;;;1.20;;
21825;SDS011;11075;47.944;11.776;2023-11-19T03:13:44;1.80;;;1.03;;
21825;SDS011;11075;47.944;11.776;2023-11-19T03:16:13;2.63;;;1.07;;
21825;SDS011;11075;47.944;11.776;2023-11-19T03:18:40;2.33;;;1.23;;
21825;SDS011;11075;47.944;11.776;2023-11-19T03:21:07;1.70;;;1.33;;
21825;SDS011;11075;47.944;11.776;2023-11-19T03:23:37;1.57;;;1.23;;
21825;SDS011;11075;47.944;11.776;2023-11-19T03:26:04;1.87;;;1.00;;
21825;SDS011;11075;47.944;11.776;2023-11-19T03:28:32;1.03;;;0.83;;
21825;SDS011;11075;47.944;11.776;2023-11-19T03:30:59;1.53;;;0.90;;
21825;SDS011;11075;47.944;11.776;2023-11-19T03:33:26;2.30;;;0.90;;
21825;SDS011;11075;47.944;11.776;2023-11-19T03:35:56;1.13;;;1.00;;
21825;SDS011;11075;47.944;11.776;2023-11-19T03:38:23;1.70;;;1.33;;
21825;SDS011;11075;47.944;11.776;2023-11-19T03:40:51;2.77;;;0.80;;
21825;SDS011;11075;47.944;11.776;2023-11-19T03:43:18;1.83;;;0.90;;
21825;SDS011;11075;47.944;11.776;2023-11-19T03:45:48;6.53;;;1.10;;
21825;SDS011;11075;47.944;11.776;2023-11-19T03:48:15;1.10;;;1.00;;
21825;SDS011;11075;47.944;11.776;2023-11-19T03:50:45;1.63;;;1.20;;
21825;SDS011;11075;47.944;11.776;2023-11-19T03:53:12;5.67;;;1.20;;
21825;SDS011;11075;47.944;11.776;2023-11-19T03:55:40;3.27;;;0.90;;
21825;SDS011;11075;47.944;11.776;2023-11-19T03:58:06;1.17;;;0.73;;
21825;SDS011;11075;47.944;11.776;2023-11-19T04:00:34;1.53;;;0.93;;
21825;SDS011;11075;47.944;11.776;2023-11-19T04:03:00;2.93;;;0.67;;
21825;SDS011;11075;47.944;11.776;2023-11-19T04:05:27;2.00;;;0.70;;
21825;SDS011;11075;47.944;11.776;2023-11-19T04:07:54;1.33;;;0.87;;
21825;SDS011;11075;47.944;11.776;2023-11-19T04:10:21;0.60;;;0.60;;
21825;SDS011;11075;47.944;11.776;2023-11-19T04:12:49;1.17;;;0.50;;
21825;SDS011;11075;47.944;11.776;2023-11-19T04:15:16;0.47;;;0.47;;
21825;SDS011;11075;47.944;11.776;2023-11-19T04:17:43;0.47;;;0.40;;
21825;SDS011;11075;47.944;11.776;2023-11-19T04:20:11;0.90;;;0.50;;
21825;SDS011;11075;47.944;11.776;2023-11-19T04:22:41;1.13;;;0.60;;
21825;SDS011;11075;47.944;11.776;2023-11-19T04:25:08;0.50;;;0.50;;
21825;SDS011;11075;47.944;11.776;2023-11-19T04:27:36;1.80;;;0.50;;
21825;SDS011;11075;47.944;11.776;2023-11-19T04:30:03;0.43;;;0.30;;
21825;SDS011;11075;47.944;11.776;2023-11-19T04:32:31;0.50;;;0.40;;
21825;SDS011;11075;47.944;11.776;2023-11-19T04:34:58;0.63;;;0.50;;
21825;SDS011;11075;47.944;11.776;2023-11-19T04:37:25;0.50;;;0.50;;
21825;SDS011;11075;47.944;11.776;2023-11-19T04:39:52;0.80;;;0.30;;
21825;SDS011;11075;47.944;11.776;2023-11-19T04:42:19;0.97;;;0.60;;
21825;SDS011;11075;47.944;11.776;2023-11-19T04:44:46;0.90;;;0.50;;
21825;SDS011;11075;47.944;11.776;2023-11-19T04:47:13;0.70;;;0.50;;
21825;SDS011;11075;47.944;11.776;2023-11-19T04:49:40;0.43;;;0.43;;
21825;SDS011;11075;47.944;11.776;2023-11-19T04:52:11;0.50;;;0.50;;
21825;SDS011;11075;47.944;11.776;2023-11-19T04:54:41;0.40;;;0.40;;
21825;SDS011;11075;47.944;11.776;2023-11-19T04:57:10;0.60;;;0.50;;
21825;SDS011;11075;47.944;11.776;2023-11-19T04:59:39;1.40;;;0.50;;
21825;SDS011;11075;47.944;11.776;2023-11-19T05:02:06;0.87;;;0.50;;
21825;SDS011;11075;47.944;11.776;2023-11-19T05:04:33;1.63;;;0.40;;
21825;SDS011;11075;47.944;11.776;2023-11-19T05:07:00;0.53;;;0.40;;
21825;SDS011;11075;47.944;11.776;2023-11-19T05:09:27;0.67;;;0.60;;
21825;SDS011;11075;47.944;11.776;2023-11-19T05:11:54;1.20;;;0.50;;
21825;SDS011;11075;47.944;11.776;2023-11-19T05:14:21;3.13;;;0.60;;
21825;SDS011;11075;47.944;11.776;2023-11-19T05:16:48;1.33;;;0.50;;
21825;SDS011;11075;47.944;11.776;2023-11-19T05:19:16;0.73;;;0.40;;
21825;SDS011;11075;47.944;11.776;2023-11-19T05:21:43;0.40;;;0.40;;
21825;SDS011;11075;47.944;11.776;2023-11-19T05:24:10;0.97;;;0.57;;
21825;SDS011;11075;47.944;11.776;2023-11-19T05:26:38;2.73;;;0.43;;
21825;SDS011;11075;47.944;11.776;2023-11-19T05:29:05;0.67;;;0.47;;
21825;SDS011;11075;47.944;11.776;2023-11-19T05:31:32;1.27;;;0.50;;
21825;SDS011;11075;47.944;11.776;2023-11-19T05:34:02;0.30;;;0.30;;
21825;SDS011;11075;47.944;11.776;2023-11-19T05:36:30;0.30;;;0.30;;
21825;SDS011;11075;47.944;11.776;2023-11-19T05:38:57;2.60;;;0.57;;
21825;SDS011;11075;47.944;11.776;2023-11-19T05:41:24;0.60;;;0.40;;
21825;SDS011;11075;47.944;11.776;2023-11-19T05:43:51;0.33;;;0.33;;
21825;SDS011;11075;47.944;11.776;2023-11-19T05:46:18;0.47;;;0.20;;
21825;SDS011;11075;47.944;11.776;2023-11-19T05:48:47;0.53;;;0.40;;
21825;SDS011;11075;47.944;11.776;2023-11-19T05:51:14;1.23;;;0.30;;
21825;SDS011;11075;47.944;11.776;2023-11-19T05:53:42;0.30;;;0.30;;
21825;SDS011;11075;47.944;11.776;2023-11-19T05:56:09;0.40;;;0.40;;
21825;SDS011;11075;47.944;11.776;2023-11-19T05:58:36;0.37;;;0.23;;
21825;SDS011;11075;47.944;11.776;2023-11-19T06:01:04;0.80;;;0.20;;
21825;SDS011;11075;47.944;11.776;2023-11-19T06:03:34;0.40;;;0.30;;
21825;SDS011;11075;47.944;11.776;2023-11-19T06:06:01;0.40;;;0.20;;
21825;SDS011;11075;47.944;11.776;2023-11-19T06:08:28;1.00;;;0.40;;
21825;SDS011;11075;47.944;11.776;2023-11-19T06:10:56;0.20;;;0.20;;
21825;SDS011;11075;47.944;11.776;2023-11-19T06:13:23;1.70;;;0.30;;
21825;SDS011;11075;47.944;11.776;2023-11-19T06:15:51;0.53;;;0.37;;
21825;SDS011;11075;47.944;11.776;2023-11-19T06:18:18;1.63;;;0.30;;
21825;SDS011;11075;47.944;11.776;2023-11-19T06:20:47;0.20;;;0.20;;
21825;SDS011;11075;47.944;11.776;2023-11-19T06:23:14;3.07;;;0.30;;
21825;SDS011;11075;47.944;11.776;2023-11-19T06:25:41;0.20;;;0.20;;
21825;SDS011;11075;47.944;11.776;2023-11-19T06:28:08;0.30;;;0.20;;
21825;SDS011;11075;47.944;11.776;2023-11-19T06:30:35;3.93;;;0.30;;
21825;SDS011;11075;47.944;11.776;2023-11-19T06:33:02;0.20;;;0.20;;
21825;SDS011;11075;47.944;11.776;2023-11-19T06:35:30;0.20;;;0.20;;
21825;SDS011;11075;47.944;11.776;2023-11-19T06:38:03;0.10;;;0.10;;
21825;SDS011;11075;47.944;11.776;2023-11-19T06:40:33;0.40;;;0.20;;
21825;SDS011;11075;47.944;11.776;2023-11-19T06:43:02;0.23;;;0.23;;
21825;SDS011;11075;47.944;11.776;2023-11-19T06:45:35;0.20;;;0.20;;
21825;SDS011;11075;47.944;11.776;2023-11-19T06:48:03;0.20;;;0.10;;
21825;SDS011;11075;47.944;11.776;2023-11-19T06:50:31;0.10;;;0.10;;
21825;SDS011;11075;47.944;11.776;2023-11-19T06:52:58;4.60;;;3.00;;
21825;SDS011;11075;47.944;11.776;2023-11-19T06:55:26;0.90;;;0.60;;
21825;SDS011;11075;47.944;11.776;2023-11-19T06:57:53;13.33;;;8.73;;
21825;SDS011;11075;47.944;11.776;2023-11-19T07:00:20;0.40;;;0.40;;
21825;SDS011;11075;47.944;11.776;2023-11-19T07:02:47;0.30;;;0.30;;
21825;SDS011;11075;47.944;11.776;2023-11-19T07:05:14;1.80;;;1.07;;
21825;SDS011;11075;47.944;11.776;2023-11-19T07:07:41;0.20;;;0.20;;
21825;SDS011;11075;47.944;11.776;2023-11-19T07:10:08;0.70;;;0.60;;
21825;SDS011;11075;47.944;11.776;2023-11-19T07:12:36;0.23;;;0.20;;
21825;SDS011;11075;47.944;11.776;2023-11-19T07:15:03;0.27;;;0.27;;
21825;SDS011;11075;47.944;11.776;2023-11-19T07:17:31;0.30;;;0.30;;
21825;SDS011;11075;47.944;11.776;2023-11-19T07:19:58;0.80;;;0.80;;
21825;SDS011;11075;47.944;11.776;2023-11-19T07:22:26;1.43;;;0.40;;
21825;SDS011;11075;47.944;11.776;2023-11-19T07:24:53;0.67;;;0.20;;
21825;SDS011;11075;47.944;11.776;2023-11-19T07:27:20;0.20;;;0.20;;
21825;SDS011;11075;47.944;11.776;2023-11-19T07:29:46;0.10;;;0.10;;
21825;SDS011;11075;47.944;11.776;2023-11-19T07:32:14;0.23;;;0.20;;
21825;SDS011;11075;47.944;11.776;2023-11-19T07:34:41;0.37;;;0.20;;
21825;SDS011;11075;47.944;11.776;2023-11-19T07:37:08;0.30;;;0.20;;
21825;SDS011;11075;47.944;11.776;2023-11-19T07:39:34;0.30;;;0.20;;
21825;SDS011;11075;47.944;11.776;2023-11-19T07:42:02;0.30;;;0.20;;
21825;SDS011;11075;47.944;11.776;2023-11-19T07:44:29;0.40;;;0.30;;
21825;SDS011;11075;47.944;11.776;2023-11-19T07:46:56;0.97;;;0.27;;
21825;SDS011;11075;47.944;11.776;2023-11-19T07:49:23;0.20;;;0.20;;
21825;SDS011;11075;47.944;11.776;2023-11-19T07:51:50;0.33;;;0.33;;
21825;SDS011;11075;47.944;11.776;2023-11-19T07:54:17;1.47;;;0.70;;
21825;SDS011;11075;47.944;11.776;2023-11-19T07:56:44;0.40;;;0.30;;
21825;SDS011;11075;47.944;11.776;2023-11-19T07:59:11;0.10;;;0.10;;
21825;SDS011;11075;47.944;11.776;2023-11-19T08:01:38;1.30;;;0.40;;
21825;SDS011;11075;47.944;11.776;2023-11-19T08:04:05;0.50;;;0.30;;
21825;SDS011;11075;47.944;11.776;2023-11-19T08:06:32;0.30;;;0.30;;
21825;SDS011;11075;47.944;11.776;2023-11-19T08:08:59;0.20;;;0.20;;
21825;SDS011;11075;47.944;11.776;2023-11-19T08:11:26;0.10;;;0.10;;
21825;SDS011;11075;47.944;11.776;2023-11-19T08:13:53;0.10;;;0.10;;
21825;SDS011;11075;47.944;11.776;2023-11-19T08:16:19;0.87;;;0.20;;
21825;SDS011;11075;47.944;11.776;2023-11-19T08:18:46;0.23;;;0.20;;
21825;SDS011;11075;47.944;11.776;2023-11-19T08:21:13;0.10;;;0.10;;
21825;SDS011;11075;47.944;11.776;2023-11-19T08:23:41;0.20;;;0.20;;
21825;SDS011;11075;47.944;11.776;2023-11-19T08:26:08;0.10;;;0.10;;
21825;SDS011;11075;47.944;11.776;2023-11-19T08:28:35;0.10;;;0.10;;
21825;SDS011;11075;47.944;11.776;2023-11-19T08:31:02;1.80;;;0.10;;
21825;SDS011;11075;47.944;11.776;2023-11-19T08:33:31;0.10;;;0.10;;
21825;SDS011;11075;47.944;11.776;2023-11-19T08:35:58;1.90;;;0.20;;
21825;SDS011;11075;47.944;11.776;2023-11-19T08:38:25;0.47;;;0.20;;
21825;SDS011;11075;47.944;11.776;2023-11-19T08:40:55;0.27;;;0.20;;
21825;SDS011;11075;47.944;11.776;2023-11-19T08:43:27;0.30;;;0.30;;
21825;SDS011;11075;47.944;11.776;2023-11-19T08:45:54;2.43;;;0.37;;
21825;SDS011;11075;47.944;11.776;2023-11-19T08:48:21;0.40;;;0.40;;
21825;SDS011;11075;47.944;11.776;2023-11-19T08:50:48;0.27;;;0.17;;
21825;SDS011;11075;47.944;11.776;2023-11-19T08:53:15;1.90;;;0.53;;
21825;SDS011;11075;47.944;11.776;2023-11-19T08:55:42;0.50;;;0.50;;
21825;SDS011;11075;47.944;11.776;2023-11-19T08:58:08;0.20;;;0.20;;
21825;SDS011;11075;47.944;11.776;2023-11-19T09:00:35;3.00;;;1.20;;
21825;SDS011;11075;47.944;11.776;2023-11-19T09:03:02;0.60;;;0.60;;
21825;SDS011;11075;47.944;11.776;2023-11-19T09:05:30;0.20;;;0.20;;
21825;SDS011;11075;47.944;11.776;2023-11-19T09:07:58;0.30;;;0.30;;
21825;SDS011;11075;47.944;11.776;2023-11-19T09:10:25;0.83;;;0.13;;
21825;SDS011;11075;47.944;11.776;2023-11-19T09:12:53;0.30;;;0.30;;
21825;SDS011;11075;47.944;11.776;2023-11-19T09:15:24;0.30;;;0.30;;
21825;SDS011;11075;47.944;11.776;2023-11-19T09:17:50;0.53;;;0.20;;
21825;SDS011;11075;47.944;11.776;2023-11-19T09:20:17;0.30;;;0.30;;
21825;SDS011;11075;47.944;11.776;2023-11-19T09:22:44;0.30;;;0.20;;
21825;SDS011;11075;47.944;11.776;2023-11-19T09:25:11;0.20;;;0.20;;
21825;SDS011;11075;47.944;11.776;2023-11-19T09:27:43;0.20;;;0.20;;
21825;SDS011;11075;47.944;11.776;2023-11-19T09:30:10;0.20;;;0.20;;
21825;SDS011;11075;47.944;11.776;2023-11-19T09:32:38;0.20;;;0.20;;
21825;SDS011;11075;47.944;11.776;2023-11-19T09:35:05;0.20;;;0.20;;
21825;SDS011;11075;47.944;11.776;2023-11-19T09:37:33;0.10;;;0.10;;
21825;SDS011;11075;47.944;11.776;2023-11-19T09:40:00;1.70;;;0.20;;
21825;SDS011;11075;47.944;11.776;2023-11-19T09:42:27;0.90;;;0.30;;
21825;SDS011;11075;47.944;11.776;2023-11-19T09:44:54;0.10;;;0.10;;
21825;SDS011;11075;47.944;11.776;2023-11-19T09:47:23;0.27;;;0.27;;
21825;SDS011;11075;47.944;11.776;2023-11-19T09:49:54;0.10;;;0.10;;
21825;SDS011;11075;47.944;11.776;2023-11-19T09:52:24;0.30;;;0.20;;
21825;SDS011;11075;47.944;11.776;2023-11-19T09:54:51;0.30;;;0.20;;
21825;SDS011;11075;47.944;11.776;2023-11-19T09:57:18;1.20;;;0.30;;
21825;SDS011;11075;47.944;11.776;2023-11-19T09:59:45;0.57;;;0.33;;
21825;SDS011;11075;47.944;11.776;2023-11-19T10:02:14;0.87;;;0.40;;
21825;SDS011;11075;47.944;11.776;2023-11-19T10:04:41;0.67;;;0.40;;
21825;SDS011;11075;47.944;11.776;2023-11-19T10:07:10;0.13;;;0.13;;
21825;SDS011;11075;47.944;11.776;2023-11-19T10:09:37;0.20;;;0.20;;
21825;SDS011;11075;47.944;11.776;2023-11-19T10:12:04;1.50;;;0.20;;
21825;SDS011;11075;47.944;11.776;2023-11-19T10:14:31;0.53;;;0.20;;
21825;SDS011;11075;47.944;11.776;2023-11-19T10:17:01;1.90;;;0.20;;
21825;SDS011;11075;47.944;11.776;2023-11-19T10:19:31;0.20;;;0.20;;
21825;SDS011;11075;47.944;11.776;2023-11-19T10:22:02;0.87;;;0.10;;
21825;SDS011;11075;47.944;11.776;2023-11-19T10:24:33;1.60;;;0.10;;
21825;SDS011;11075;47.944;11.776;2023-11-19T10:27:08;0.67;;;0.10;;
21825;SDS011;11075;47.944;11.776;2023-11-19T10:29:38;0.27;;;0.20;;
21825;SDS011;11075;47.944;11.776;2023-11-19T10:32:05;0.20;;;0.20;;
21825;SDS011;11075;47.944;11.776;2023-11-19T10:34:52;1.10;;;0.20;;
21825;SDS011;11075;47.944;11.776;2023-11-19T10:37:28;0.30;;;0.20;;
21825;SDS011;11075;47.944;11.776;2023-11-19T10:40:02;0.53;;;0.30;;
21825;SDS011;11075;47.944;11.776;2023-11-19T10:42:31;0.30;;;0.20;;
21825;SDS011;11075;47.944;11.776;2023-11-19T10:44:58;1.10;;;0.20;;
21825;SDS011;11075;47.944;11.776;2023-11-19T10:47:25;0.20;;;0.10;;
21825;SDS011;11075;47.944;11.776;2023-11-19T10:49:55;0.20;;;0.20;;
21825;SDS011;11075;47.944;11.776;2023-11-19T10:52:22;0.10;;;0.10;;
21825;SDS011;11075;47.944;11.776;2023-11-19T10:54:51;0.10;;;0.10;;
21825;SDS011;11075;47.944;11.776;2023-11-19T10:57:20;1.23;;;0.20;;
21825;SDS011;11075;47.944;11.776;2023-11-19T10:59:54;0.20;;;0.20;;
21825;SDS011;11075;47.944;11.776;2023-11-19T11:02:28;0.88;;;0.15;;
21825;SDS011;11075;47.944;11.776;2023-11-19T11:04:59;0.20;;;0.20;;
21825;SDS011;11075;47.944;11.776;2023-11-19T11:07:27;0.47;;;0.10;;
21825;SDS011;11075;47.944;11.776;2023-11-19T11:10:07;0.10;;;0.10;;
21825;SDS011;11075;47.944;11.776;2023-11-19T11:12:36;0.30;;;0.30;;
21825;SDS011;11075;47.944;11.776;2023-11-19T11:15:04;0.10;;;0.10;;
21825;SDS011;11075;47.944;11.776;2023-11-19T11:17:33;0.22;;;0.22;;
21825;SDS011;11075;47.944;11.776;2023-11-19T11:20:01;0.17;;;0.17;;
21825;SDS011;11075;47.944;11.776;2023-11-19T11:22:29;0.20;;;0.20;;
21825;SDS011;11075;47.944;11.776;2023-11-19T11:25:23;0.73;;;0.15;;
21825;SDS011;11075;47.944;11.776;2023-11-19T11:36:50;0.63;;;0.20;;
21825;SDS011;11075;47.944;11.776;2023-11-19T11:39:30;0.10;;;0.10;;
21825;SDS011;11075;47.944;11.776;2023-11-19T11:45:10;0.38;;;0.10;;
21825;SDS011;11075;47.944;11.776;2023-11-19T11:50:13;2.45;;;0.20;;
21825;SDS011;11075;47.944;11.776;2023-11-19T11:58:19;0.20;;;0.10;;
21825;SDS011;11075;47.944;11.776;2023-11-19T12:00:53;0.80;;;0.20;;
21825;SDS011;11075;47.944;11.776;2023-11-19T12:03:21;0.10;;;0.10;;
21825;SDS011;11075;47.944;11.776;2023-11-19T12:05:48;0.10;;;0.10;;
21825;SDS011;11075;47.944;11.776;2023-11-19T12:08:18;1.13;;;0.20;;
21825;SDS011;11075;47.944;11.776;2023-11-19T12:10:55;0.20;;;0.20;;
21825;SDS011;11075;47.944;11.776;2023-11-19T12:13:42;0.47;;;0.10;;
21825;SDS011;11075;47.944;11.776;2023-11-19T12:16:13;0.20;;;0.20;;
21825;SDS011;11075;47.944;11.776;2023-11-19T12:18:40;0.20;;;0.20;;
21825;SDS011;11075;47.944;11.776;2023-11-19T12:21:08;0.20;;;0.20;;
21825;SDS011;11075;47.944;11.776;2023-11-19T12:23:44;0.17;;;0.17;;
21825;SDS011;11075;47.944;11.776;2023-11-19T12:26:30;0.40;;;0.30;;
21825;SDS011;11075;47.944;11.776;2023-11-19T12:28:59;0.13;;;0.13;;
21825;SDS011;11075;47.944;11.776;2023-11-19T12:31:30;1.83;;;0.35;;
21825;SDS011;11075;47.944;11.776;2023-11-19T12:33:57;0.40;;;0.22;;
21825;SDS011;11075;47.944;11.776;2023-11-19T12:36:24;2.13;;;0.20;;
21825;SDS011;11075;47.944;11.776;2023-11-19T12:38:51;0.57;;;0.13;;
21825;SDS011;11075;47.944;11.776;2023-11-19T12:41:18;0.20;;;0.10;;
21825;SDS011;11075;47.944;11.776;2023-11-19T12:43:49;1.50;;;0.10;;
21825;SDS011;11075;47.944;11.776;2023-11-19T12:46:21;0.65;;;0.25;;
21825;SDS011;11075;47.944;11.776;2023-11-19T12:48:50;0.47;;;0.17;;
21825;SDS011;11075;47.944;11.776;2023-11-19T12:51:18;0.63;;;0.43;;
21825;SDS011;11075;47.944;11.776;2023-11-19T12:53:47;0.40;;;0.20;;
21825;SDS011;11075;47.944;11.776;2023-11-19T12:56:21;0.38;;;0.22;;
21825;SDS011;11075;47.944;11.776;2023-11-19T12:58:49;0.22;;;0.22;;
21825;SDS011;11075;47.944;11.776;2023-11-19T13:01:17;0.43;;;0.20;;
21825;SDS011;11075;47.944;11.776;2023-11-19T13:03:46;0.60;;;0.30;;
21825;SDS011;11075;47.944;11.776;2023-11-19T13:06:15;0.40;;;0.10;;
21825;SDS011;11075;47.944;11.776;2023-11-19T13:08:43;1.27;;;0.30;;
21825;SDS011;11075;47.944;11.776;2023-11-19T13:11:32;0.10;;;0.10;;
21825;SDS011;11075;47.944;11.776;2023-11-19T13:14:01;1.80;;;0.13;;
21825;SDS011;11075;47.944;11.776;2023-11-19T13:16:36;0.17;;;0.17;;
21825;SDS011;11075;47.944;11.776;2023-11-19T13:19:04;0.20;;;0.20;;
21825;SDS011;11075;47.944;11.776;2023-11-19T13:21:31;0.32;;;0.20;;
21825;SDS011;11075;47.944;11.776;2023-11-19T13:23:58;1.42;;;0.38;;
21825;SDS011;11075;47.944;11.776;2023-11-19T13:26:25;0.65;;;0.20;;
21825;SDS011;11075;47.944;11.776;2023-11-19T13:28:52;0.88;;;0.20;;
21825;SDS011;11075;47.944;11.776;2023-11-19T13:31:19;0.55;;;0.28;;
21825;SDS011;11075;47.944;11.776;2023-11-19T13:33:46;1.25;;;0.17;;
21825;SDS011;11075;47.944;11.776;2023-11-19T13:36:13;0.40;;;0.17;;
21825;SDS011;11075;47.944;11.776;2023-11-19T13:38:43;0.10;;;0.10;;
21825;SDS011;11075;47.944;11.776;2023-11-19T13:41:11;0.30;;;0.20;;
21825;SDS011;11075;47.944;11.776;2023-11-19T13:43:41;0.38;;;0.20;;
21825;SDS011;11075;47.944;11.776;2023-11-19T13:46:08;0.22;;;0.22;;
21825;SDS011;11075;47.944;11.776;2023-11-19T13:48:38;1.55;;;0.20;;
21825;SDS011;11075;47.944;11.776;2023-11-19T13:51:05;0.28;;;0.13;;
21825;SDS011;11075;47.944;11.776;2023-11-19T13:53:33;0.22;;;0.22;;
21825;SDS011;11075;47.944;11.776;2023-11-19T13:56:17;0.20;;;0.20;;
21825;SDS011;11075;47.944;11.776;2023-11-19T13:58:44;0.35;;;0.35;;
21825;SDS011;11075;47.944;11.776;2023-11-19T14:01:11;0.98;;;0.40;;
21825;SDS011;11075;47.944;11.776;2023-11-19T14:03:40;1.02;;;0.28;;
21825;SDS011;11075;47.944;11.776;2023-11-19T14:06:08;0.60;;;0.28;;
21825;SDS011;11075;47.944;11.776;2023-11-19T14:08:36;2.72;;;0.30;;
21825;SDS011;11075;47.944;11.776;2023-11-19T14:11:03;0.43;;;0.43;;
21825;SDS011;11075;47.944;11.776;2023-11-19T14:13:30;1.40;;;0.28;;
21825;SDS011;11075;47.944;11.776;2023-11-19T14:15:57;0.20;;;0.20;;
21825;SDS011;11075;47.944;11.776;2023-11-19T14:18:24;0.85;;;0.30;;
21825;SDS011;11075;47.944;11.776;2023-11-19T14:20:51;0.20;;;0.10;;
21825;SDS011;11075;47.944;11.776;2023-11-19T14:23:17;1.00;;;0.30;;
21825;SDS011;11075;47.944;11.776;2023-11-19T14:25:44;0.47;;;0.27;;
21825;SDS011;11075;47.944;11.776;2023-11-19T14:28:11;0.40;;;0.20;;
21825;SDS011;11075;47.944;11.776;2023-11-19T14:30:38;0.20;;;0.20;;
21825;SDS011;11075;47.944;11.776;2023-11-19T14:33:05;0.75;;;0.17;;
21825;SDS011;11075;47.944;11.776;2023-11-19T14:35:33;0.40;;;0.30;;
21825;SDS011;11075;47.944;11.776;2023-11-19T14:38:00;0.40;;;0.23;;
21825;SDS011;11075;47.944;11.776;2023-11-19T14:40:31;0.23;;;0.20;;
21825;SDS011;11075;47.944;11.776;2023-11-19T14:43:01;0.20;;;0.20;;
21825;SDS011;11075;47.944;11.776;2023-11-19T14:45:28;0.20;;;0.20;;
21825;SDS011;11075;47.944;11.776;2023-11-19T14:48:04;1.35;;;0.20;;
21825;SDS011;11075;47.944;11.776;2023-11-19T14:50:32;0.50;;;0.27;;
21825;SDS011;11075;47.944;11.776;2023-11-19T14:52:59;0.53;;;0.30;;
21825;SDS011;11075;47.944;11.776;2023-11-19T14:55:26;0.40;;;0.30;;
21825;SDS011;11075;47.944;11.776;2023-11-19T14:57:53;0.45;;;0.20;;
21825;SDS011;11075;47.944;11.776;2023-11-19T15:00:33;0.30;;;0.30;;